Date,TemperatureHighF,TemperatureAvgF,TemperatureLowF,DewpointHighF,DewpointAvgF,DewpointLowF,HumidityHigh,HumidityAvg,HumidityLow,PressureMaxIn,PressureMinIn,WindSpeedMaxMPH,WindSpeedAvgMPH,GustSpeedMaxMPH,PrecipitationSumIn
2013-3-1,29.1,23.8,16.9,17.0,14.8,10.9,77,68,59,30.42,30.28,13,4,13,0.00
2013-3-2,30.8,19.6,8.8,12.7,8.5,1.3,87,64,40,30.43,30.25,8,1,8,0.00
2013-3-3,31.9,24.9,16.7,13.1,10.2,5.7,67,54,40,30.25,30.04,22,6,22,0.00
2013-3-4,26.8,23.8,21.4,20.5,17.3,12.7,89,77,55,30.10,30.00,25,9,25,0.00
2013-3-5,27.6,24.3,20.6,24.1,21.3,16.6,92,88,83,30.38,30.03,14,4,14,0.04
2013-3-6,27.6,22.0,15.3,19.3,16.1,11.9,87,78,66,30.50,30.37,15,3,15,0.07
2013-3-7,29.4,19.6,6.5,18.7,12.8,3.0,87,75,63,30.47,30.36,17,4,17,0.00
2013-3-8,38.4,28.1,15.3,28.4,21.9,12.1,88,78,65,30.40,30.14,20,5,20,0.08
2013-3-9,36.2,34.9,32.8,34.1,32.3,27.3,93,90,75,30.15,29.74,20,5,20,0.72
2013-3-10,33.9,33.3,32.8,32.1,30.3,28.6,93,89,82,29.99,29.81,20,8,20,0.01
2013-3-11,29.0,25.0,20.8,20.2,17.8,14.9,78,74,68,29.92,29.83,15,8,15,0.01
2013-3-12,26.9,23.3,19.5,19.3,15.2,10.4,81,71,55,30.27,29.90,26,10,26,0.00
2013-3-13,30.1,20.7,10.8,17.6,12.6,7.2,85,71,50,30.47,30.27,13,4,13,0.00
2013-3-14,41.5,30.5,22.5,27.8,22.9,16.5,89,74,57,30.33,30.07,15,4,15,0.04
2013-3-15,33.4,30.2,24.5,29.9,26.8,22.0,91,87,81,30.07,29.86,12,3,12,0.11
2013-3-16,24.9,20.4,12.6,22.1,13.3,4.3,90,74,56,30.32,29.94,15,7,15,0.00
2013-3-17,12.5,10.3,8.9,4.3,1.9,0.1,71,68,65,30.35,30.31,9,2,9,0.00
2013-3-18,29.1,27.6,26.2,26.9,23.3,20.1,92,84,75,29.94,29.67,18,7,38,0.00
2013-3-19,20.9,12.0,5.5,6.4,1.5,-2.4,76,63,46,30.31,29.91,14,6,27,0.00
2013-3-20,18.8,11.3,4.7,4.9,0.0,-4.2,67,60,51,30.33,30.22,22,6,25,0.00
2013-3-21,26.9,15.6,3.2,9.9,4.7,-2.1,82,63,47,30.24,30.13,9,1,9,0.00
2013-3-22,36.9,21.6,6.6,15.9,10.1,2.0,82,63,40,30.19,30.12,12,1,12,0.00
2013-3-23,37.5,26.7,14.8,19.7,16.1,10.4,85,65,44,30.23,30.15,12,2,12,0.00
2013-3-24,32.3,28.3,25.3,24.1,21.2,18.8,87,75,60,30.17,30.03,17,4,17,0.00
2013-3-25,36.2,29.3,21.9,21.6,17.6,14.5,75,62,45,30.29,30.10,17,7,17,0.00
2013-3-26,38.7,28.2,21.5,23.6,19.2,15.7,81,69,52,30.37,30.29,14,4,14,0.00
2013-3-27,42.7,30.8,18.4,24.7,18.5,15.4,89,63,38,30.42,30.36,12,2,12,0.00
2013-3-28,45.0,33.2,21.4,27.1,21.8,16.4,86,64,44,30.40,30.33,13,3,13,0.00
2013-3-29,50.4,39.6,31.4,36.5,30.2,24.5,84,69,53,30.34,30.10,16,5,16,0.00
2013-3-30,51.7,42.7,33.7,41.9,36.2,30.2,90,78,65,30.10,29.88,22,6,22,0.12
2013-3-31,37.9,32.5,22.8,30.4,23.1,13.1,91,70,40,30.15,29.85,26,12,26,0.00